Impacts TAF Board INFO
FOR SITUATIONAL AWARENESS. NOT TO BE USED FOR FLIGHT PLANNING PURPOSES.
IDs:

KPDX - Portland Intl Arpt, OR, US

Issued at 1450 UTC 16 Dec 2017
Updated at 1652 UTC 16 Dec 2017
Potential Impact None Slight Moderate High
Time<<17/17Z 17/18Z 17/19Z 17/20Z 17/21Z 17/22Z 17/23Z 18/00Z 18/01Z 18/02Z 18/03Z 18/04Z 18/05Z
Type
VIS
CIG
Cover
FltCat
WX
WDir
WSpd
WGst

Raw TAF
KPDX 161450Z 1615/1712 VRB03KT P6SM -RA BKN035 OVC050
  FM161800 15003KT P6SM -RA BKN025 OVC040
  FM162300 22004KT P6SM VCSH SCT030 OVC050
  FM170500 13005KT P6SM -RA BKN025 OVC040


METAR Board
Radar Display
Forecast Discussion

FOR SITUATIONAL AWARENESS. NOT TO BE USED FOR FLIGHT PLANNING PURPOSES.